Time;durP1;ratioP1;P1;durP2;ratioP2;P2;SDS_P1;SDS_P2;PMS_P1;PMS_P2;Temp;Humidity;BMP_temperature;BMP_pressure;BME280_temperature;BME280_humidity;BME280_pressure;Samples;Min_cycle;Max_cycle;Signal;HPM_P1;HPM_P2
2022/05/18 00:01:13;;;;;;;2.00;1.80;;;;;;;;;;5012006;28;20198;-36
2022/05/18 00:03:42;;;;;;;1.90;1.80;;;;;;;;;;5006415;28;20206;-40
2022/05/18 00:06:10;;;;;;;2.23;1.97;;;;;;;;;;5005829;28;20285;-36
2022/05/18 00:08:37;;;;;;;2.13;1.93;;;;;;;;;;5012490;28;20201;-38
2022/05/18 00:11:06;;;;;;;2.93;1.70;;;;;;;;;;5015878;28;20208;-42
2022/05/18 00:13:35;;;;;;;3.43;2.40;;;;;;;;;;5001505;28;20223;-36
2022/05/18 00:16:02;;;;;;;1.87;1.77;;;;;;;;;;5011693;28;20595;-33
2022/05/18 00:18:29;;;;;;;1.93;1.77;;;;;;;;;;5001268;28;20215;-38
2022/05/18 00:20:56;;;;;;;2.20;2.00;;;;;;;;;;5004536;28;20215;-35
2022/05/18 00:23:23;;;;;;;4.93;2.20;;;;;;;;;;5012306;28;20211;-35
2022/05/18 00:25:50;;;;;;;2.60;1.90;;;;;;;;;;5001824;28;20267;-34
2022/05/18 00:28:17;;;;;;;1.83;1.57;;;;;;;;;;5011580;28;20516;-40
2022/05/18 00:30:46;;;;;;;2.10;2.00;;;;;;;;;;5011547;28;20575;-34
2022/05/18 00:33:13;;;;;;;1.73;1.60;;;;;;;;;;5001604;28;20219;-40
2022/05/18 00:35:41;;;;;;;1.90;1.73;;;;;;;;;;5010829;28;20231;-37
2022/05/18 00:38:08;;;;;;;2.00;1.83;;;;;;;;;;5012145;28;20205;-38
2022/05/18 00:40:36;;;;;;;2.60;1.97;;;;;;;;;;5012257;28;20207;-39
2022/05/18 00:43:03;;;;;;;2.40;2.20;;;;;;;;;;5001030;28;20203;-36
2022/05/18 00:45:30;;;;;;;3.47;2.17;;;;;;;;;;5011016;28;20231;-37
2022/05/18 00:47:58;;;;;;;3.00;1.93;;;;;;;;;;5004392;28;20484;-39
2022/05/18 00:50:28;;;;;;;2.43;1.87;;;;;;;;;;4999891;28;20209;-40
2022/05/18 00:52:59;;;;;;;2.33;1.80;;;;;;;;;;5011447;28;20224;-36
2022/05/18 00:55:27;;;;;;;2.80;2.10;;;;;;;;;;5025993;28;20560;-36
2022/05/18 00:57:58;;;;;;;2.37;2.17;;;;;;;;;;5005483;28;20215;-41
2022/05/18 01:00:25;;;;;;;2.27;1.80;;;;;;;;;;5005982;28;20209;-39
2022/05/18 01:02:54;;;;;;;3.53;2.40;;;;;;;;;;4998319;28;20234;-37
2022/05/18 01:05:27;;;;;;;1.93;1.73;;;;;;;;;;5014713;28;20203;-38
2022/05/18 01:07:55;;;;;;;1.90;1.80;;;;;;;;;;5010227;28;20204;-38
2022/05/18 01:10:23;;;;;;;1.93;1.80;;;;;;;;;;5024407;28;20208;-39
2022/05/18 01:12:50;;;;;;;2.33;1.77;;;;;;;;;;5005393;28;20212;-40
2022/05/18 01:15:19;;;;;;;4.20;2.27;;;;;;;;;;5011005;28;20196;-35
2022/05/18 01:17:47;;;;;;;2.37;2.13;;;;;;;;;;5002152;28;20215;-42
2022/05/18 01:20:16;;;;;;;2.23;1.67;;;;;;;;;;4997792;28;20200;-42
2022/05/18 01:22:47;;;;;;;3.17;2.43;;;;;;;;;;5011280;28;20290;-43
2022/05/18 01:25:22;;;;;;;2.83;2.30;;;;;;;;;;5017561;28;20210;-41
2022/05/18 01:27:51;;;;;;;2.70;2.37;;;;;;;;;;5001851;28;20208;-37
2022/05/18 01:30:18;;;;;;;4.23;2.40;;;;;;;;;;5011391;28;20210;-38
2022/05/18 01:32:46;;;;;;;3.57;2.70;;;;;;;;;;5000214;28;20247;-40
2022/05/18 01:35:14;;;;;;;5.47;2.60;;;;;;;;;;5002915;28;20473;-40
2022/05/18 01:37:41;;;;;;;3.43;2.10;;;;;;;;;;5011925;28;20687;-32
2022/05/18 01:40:12;;;;;;;3.43;2.27;;;;;;;;;;5010088;28;20215;-39
2022/05/18 01:42:42;;;;;;;3.50;2.40;;;;;;;;;;5004749;28;20302;-41
2022/05/18 01:45:10;;;;;;;4.00;2.30;;;;;;;;;;5011171;28;20204;-41
2022/05/18 01:47:39;;;;;;;2.63;2.30;;;;;;;;;;5004870;28;20302;-37
2022/05/18 01:50:08;;;;;;;2.30;2.10;;;;;;;;;;5005496;28;20207;-35
2022/05/18 01:52:35;;;;;;;2.67;2.20;;;;;;;;;;5012301;28;20207;-42
2022/05/18 01:55:02;;;;;;;3.33;2.30;;;;;;;;;;5009480;28;20234;-37
2022/05/18 01:57:30;;;;;;;2.50;2.10;;;;;;;;;;5010239;28;20234;-38
2022/05/18 01:59:57;;;;;;;4.00;2.70;;;;;;;;;;5010633;28;20202;-35
2022/05/18 02:02:25;;;;;;;5.70;2.37;;;;;;;;;;5003244;28;20208;-37
2022/05/18 02:04:52;;;;;;;4.23;2.80;;;;;;;;;;4993736;28;20211;-38
2022/05/18 02:07:19;;;;;;;4.03;2.23;;;;;;;;;;5010002;28;20716;-32
2022/05/18 02:09:46;;;;;;;3.07;2.30;;;;;;;;;;5010574;28;20427;-41
2022/05/18 02:12:14;;;;;;;2.77;2.00;;;;;;;;;;5006572;28;20208;-35
2022/05/18 02:14:41;;;;;;;3.70;2.30;;;;;;;;;;5005356;28;20234;-36
2022/05/18 02:17:08;;;;;;;3.00;2.43;;;;;;;;;;5005409;28;20234;-40
2022/05/18 02:19:37;;;;;;;4.20;2.20;;;;;;;;;;5009252;28;20222;-41
2022/05/18 02:22:04;;;;;;;4.20;2.30;;;;;;;;;;5009731;28;20204;-39
2022/05/18 02:24:31;;;;;;;7.33;2.77;;;;;;;;;;5007575;28;20199;-41
2022/05/18 02:26:58;;;;;;;5.30;2.50;;;;;;;;;;5008253;28;20215;-39
2022/05/18 02:29:25;;;;;;;4.50;2.50;;;;;;;;;;5009522;28;20829;-37
2022/05/18 02:31:52;;;;;;;4.67;2.70;;;;;;;;;;5004711;28;20210;-36
2022/05/18 02:34:20;;;;;;;2.20;2.00;;;;;;;;;;5003750;28;20595;-35
2022/05/18 02:36:49;;;;;;;3.30;2.33;;;;;;;;;;5009781;28;20633;-39
2022/05/18 02:39:16;;;;;;;3.03;2.83;;;;;;;;;;5010123;28;20211;-39
2022/05/18 02:41:44;;;;;;;3.90;2.17;;;;;;;;;;4997408;28;20223;-37
2022/05/18 02:44:11;;;;;;;2.13;1.93;;;;;;;;;;5010152;28;20208;-39
2022/05/18 02:46:38;;;;;;;3.27;2.40;;;;;;;;;;5006682;28;20222;-37
2022/05/18 02:49:06;;;;;;;2.13;1.77;;;;;;;;;;4998233;28;20257;-38
2022/05/18 02:51:33;;;;;;;3.10;2.20;;;;;;;;;;5009327;28;20203;-38
2022/05/18 02:56:05;;;;;;;3.73;2.63;;;;;;;;;;5009654;28;20234;-41
2022/05/18 02:56:48;;;;;;;2.17;1.97;;;;;;;;;;5005400;28;20258;-39
2022/05/18 02:59:15;;;;;;;1.97;1.87;;;;;;;;;;5005425;28;20206;-37
2022/05/18 03:01:42;;;;;;;3.93;2.43;;;;;;;;;;5005385;28;20210;-31
2022/05/18 03:04:09;;;;;;;2.40;2.20;;;;;;;;;;4989611;28;20235;-37
2022/05/18 03:06:37;;;;;;;3.93;2.60;;;;;;;;;;5006805;28;20223;-42
2022/05/18 03:09:05;;;;;;;2.73;2.53;;;;;;;;;;5009500;28;20218;-37
2022/05/18 03:11:32;;;;;;;2.57;2.37;;;;;;;;;;5003137;28;20207;-40
2022/05/18 03:14:00;;;;;;;5.10;2.40;;;;;;;;;;4995455;28;20715;-39
2022/05/18 03:16:28;;;;;;;3.17;2.40;;;;;;;;;;5009331;28;20226;-35
2022/05/18 03:18:55;;;;;;;3.80;2.50;;;;;;;;;;4996313;28;20213;-34
2022/05/18 03:24:10;;;;;;;3.63;2.53;;;;;;;;;;4993531;28;20330;-40
2022/05/18 03:26:38;;;;;;;2.60;2.30;;;;;;;;;;5005787;28;20732;-34
2022/05/18 03:29:05;;;;;;;2.60;2.40;;;;;;;;;;5012367;28;20290;-39
2022/05/18 03:31:32;;;;;;;5.93;2.40;;;;;;;;;;5010226;28;20294;-40
2022/05/18 03:33:59;;;;;;;3.73;2.43;;;;;;;;;;4997958;28;20226;-38
2022/05/18 03:36:27;;;;;;;2.60;2.40;;;;;;;;;;5012533;28;20719;-38
2022/05/18 03:38:55;;;;;;;2.40;2.20;;;;;;;;;;5012683;28;20199;-39
2022/05/18 03:41:24;;;;;;;4.30;2.70;;;;;;;;;;5013131;28;20199;-37
2022/05/18 03:43:51;;;;;;;2.70;2.50;;;;;;;;;;5000970;28;20223;-34
2022/05/18 03:46:18;;;;;;;3.57;2.53;;;;;;;;;;5012250;28;20708;-34
2022/05/18 03:48:46;;;;;;;3.53;2.70;;;;;;;;;;5000834;28;20267;-37
2022/05/18 03:51:15;;;;;;;4.17;2.47;;;;;;;;;;5007314;28;20211;-43
2022/05/18 03:53:43;;;;;;;2.83;2.53;;;;;;;;;;5014158;28;20226;-38
2022/05/18 03:56:11;;;;;;;2.90;2.50;;;;;;;;;;5008281;28;20728;-34
2022/05/18 03:58:40;;;;;;;3.73;2.60;;;;;;;;;;5005684;28;20214;-34
2022/05/18 04:01:09;;;;;;;4.77;2.60;;;;;;;;;;5014862;28;20217;-41
2022/05/18 04:03:37;;;;;;;5.77;2.70;;;;;;;;;;4999456;28;20271;-40
2022/05/18 04:06:04;;;;;;;2.90;2.30;;;;;;;;;;5005740;28;20233;-37
2022/05/18 04:08:32;;;;;;;2.97;2.43;;;;;;;;;;5013097;28;20214;-41
2022/05/18 04:10:59;;;;;;;2.83;2.40;;;;;;;;;;5009245;28;20557;-37
2022/05/18 04:13:26;;;;;;;3.90;2.60;;;;;;;;;;5010122;28;20542;-35
2022/05/18 04:15:55;;;;;;;4.43;2.93;;;;;;;;;;5015821;28;20433;-37
2022/05/18 04:18:23;;;;;;;4.17;2.50;;;;;;;;;;5011793;28;20675;-37
2022/05/18 04:20:51;;;;;;;2.93;2.57;;;;;;;;;;5015007;28;20211;-38
2022/05/18 04:23:18;;;;;;;2.77;2.30;;;;;;;;;;5014340;28;20658;-37
2022/05/18 04:25:46;;;;;;;3.00;2.80;;;;;;;;;;5009808;28;20223;-36
2022/05/18 04:28:14;;;;;;;2.63;2.43;;;;;;;;;;5007202;28;20214;-40
2022/05/18 04:35:48;;;;;;;2.33;2.23;;;;;;;;;;5001205;28;20232;-32
2022/05/18 04:38:15;;;;;;;3.20;2.90;;;;;;;;;;5011771;28;20211;-28
2022/05/18 04:40:42;;;;;;;5.70;3.23;;;;;;;;;;5006612;28;20212;-28
2022/05/18 04:43:09;;;;;;;2.97;2.70;;;;;;;;;;5011081;28;20521;-28
2022/05/18 04:45:39;;;;;;;3.67;2.83;;;;;;;;;;5002880;28;20220;-28
2022/05/18 04:48:06;;;;;;;4.87;2.97;;;;;;;;;;4994143;28;20204;-32
2022/05/18 04:50:34;;;;;;;2.93;2.40;;;;;;;;;;4991987;28;20204;-31
2022/05/18 04:53:02;;;;;;;3.60;2.50;;;;;;;;;;4991935;28;20231;-30
2022/05/18 04:55:30;;;;;;;3.10;2.80;;;;;;;;;;5005017;28;20236;-29
2022/05/18 04:58:00;;;;;;;4.03;3.00;;;;;;;;;;4999830;28;20681;-30
2022/05/18 05:00:28;;;;;;;4.00;2.97;;;;;;;;;;4991677;28;20200;-32
2022/05/18 05:02:57;;;;;;;2.87;2.60;;;;;;;;;;4995020;28;20203;-30
2022/05/18 05:05:25;;;;;;;2.67;2.30;;;;;;;;;;4995852;28;20201;-30
2022/05/18 05:07:52;;;;;;;3.23;2.70;;;;;;;;;;5001929;28;20239;-31
2022/05/18 05:10:21;;;;;;;4.20;2.90;;;;;;;;;;5002863;28;20230;-28
2022/05/18 05:12:48;;;;;;;5.60;3.07;;;;;;;;;;5003753;28;20234;-28
2022/05/18 05:15:16;;;;;;;2.73;2.53;;;;;;;;;;4997515;28;20235;-31
2022/05/18 05:17:43;;;;;;;3.67;3.37;;;;;;;;;;4989417;28;20224;-28
2022/05/18 05:20:11;;;;;;;2.97;2.50;;;;;;;;;;4989470;28;20200;-27
2022/05/18 05:22:39;;;;;;;3.80;2.77;;;;;;;;;;4993801;28;20211;-31
2022/05/18 05:25:06;;;;;;;3.30;2.70;;;;;;;;;;4996946;28;20306;-30
2022/05/18 05:27:35;;;;;;;3.93;2.90;;;;;;;;;;4995560;28;20216;-29
2022/05/18 05:30:02;;;;;;;5.30;3.43;;;;;;;;;;5005273;28;20207;-32
2022/05/18 05:32:31;;;;;;;4.50;3.07;;;;;;;;;;5004972;28;20214;-31
2022/05/18 05:35:00;;;;;;;3.27;2.93;;;;;;;;;;4994963;28;20253;-28
2022/05/18 05:37:28;;;;;;;2.90;2.70;;;;;;;;;;5002989;28;20226;-31
2022/05/18 05:39:56;;;;;;;3.23;2.93;;;;;;;;;;5007679;28;20657;-28
2022/05/18 05:42:23;;;;;;;4.63;2.80;;;;;;;;;;5000470;28;20219;-28
2022/05/18 05:44:52;;;;;;;4.10;3.20;;;;;;;;;;5001797;28;20214;-27
2022/05/18 05:47:20;;;;;;;4.83;3.17;;;;;;;;;;4994259;28;20286;-32
2022/05/18 05:49:47;;;;;;;4.37;3.03;;;;;;;;;;5002668;28;20298;-31
2022/05/18 05:52:14;;;;;;;3.53;3.23;;;;;;;;;;5005375;28;20197;-29
2022/05/18 05:54:43;;;;;;;5.07;3.60;;;;;;;;;;5006065;28;20217;-30
2022/05/18 05:57:11;;;;;;;3.67;3.37;;;;;;;;;;4998806;28;20296;-29
2022/05/18 05:59:39;;;;;;;5.53;3.30;;;;;;;;;;5000404;28;20232;-32
2022/05/18 06:02:11;;;;;;;3.27;2.97;;;;;;;;;;5004204;28;20263;-32
2022/05/18 06:04:40;;;;;;;3.50;3.23;;;;;;;;;;4991927;28;20502;-31
2022/05/18 06:07:07;;;;;;;5.03;3.20;;;;;;;;;;5009793;28;20228;-30
2022/05/18 06:09:37;;;;;;;4.23;3.27;;;;;;;;;;5011065;28;20201;-29
2022/05/18 06:12:04;;;;;;;3.57;3.17;;;;;;;;;;5000819;28;20203;-32
2022/05/18 06:14:32;;;;;;;6.43;3.40;;;;;;;;;;4998425;28;20221;-30
2022/05/18 06:16:59;;;;;;;3.90;3.30;;;;;;;;;;5004746;28;20226;-31
2022/05/18 06:19:29;;;;;;;2.90;2.70;;;;;;;;;;5001761;28;20293;-30
2022/05/18 06:21:56;;;;;;;3.13;2.90;;;;;;;;;;4999015;28;20199;-29
2022/05/18 06:24:26;;;;;;;3.63;3.07;;;;;;;;;;4999240;28;20229;-30
2022/05/18 06:26:53;;;;;;;5.00;2.77;;;;;;;;;;4992932;28;20236;-31
2022/05/18 06:29:20;;;;;;;4.57;3.00;;;;;;;;;;5001552;28;20214;-30
2022/05/18 06:31:48;;;;;;;4.13;3.00;;;;;;;;;;5005927;28;20217;-29
2022/05/18 06:34:15;;;;;;;3.07;2.77;;;;;;;;;;4992724;28;20301;-33
2022/05/18 06:36:44;;;;;;;4.60;3.13;;;;;;;;;;5006580;28;20234;-34
2022/05/18 06:39:11;;;;;;;4.07;3.07;;;;;;;;;;4991159;28;20204;-29
2022/05/18 06:41:38;;;;;;;4.35;2.88;;;;;;;;;;4989100;28;20206;-32
2022/05/18 06:44:08;;;;;;;3.58;3.17;;;;;;;;;;5005429;28;20265;-30
2022/05/18 06:46:36;;;;;;;3.60;3.30;;;;;;;;;;5007993;28;20277;-30
2022/05/18 06:49:05;;;;;;;4.38;3.35;;;;;;;;;;4995484;28;20216;-29
2022/05/18 06:51:34;;;;;;;3.97;3.28;;;;;;;;;;4996414;28;20273;-31
2022/05/18 06:54:03;;;;;;;5.95;3.22;;;;;;;;;;5000652;28;20200;-34
2022/05/18 06:56:31;;;;;;;5.82;3.20;;;;;;;;;;5004132;28;20262;-29
2022/05/18 06:58:58;;;;;;;4.13;3.13;;;;;;;;;;5013299;28;20211;-32
2022/05/18 07:01:26;;;;;;;3.10;2.78;;;;;;;;;;4998499;28;20202;-28
2022/05/18 07:03:54;;;;;;;5.20;2.83;;;;;;;;;;4994303;28;20200;-31
2022/05/18 07:06:22;;;;;;;3.08;2.70;;;;;;;;;;4994018;28;20231;-32
2022/05/18 07:08:51;;;;;;;3.25;2.72;;;;;;;;;;5012519;28;20201;-31
2022/05/18 07:11:20;;;;;;;4.93;3.20;;;;;;;;;;5007701;28;20216;-30
2022/05/18 07:13:51;;;;;;;4.03;2.80;;;;;;;;;;4995075;28;20250;-30
2022/05/18 07:16:19;;;;;;;5.47;2.95;;;;;;;;;;5005812;28;20306;-30
2022/05/18 07:18:47;;;;;;;4.55;2.47;;;;;;;;;;4994335;28;20214;-31
2022/05/18 07:21:15;;;;;;;5.05;2.72;;;;;;;;;;4999497;28;20209;-30
2022/05/18 07:23:43;;;;;;;3.55;2.97;;;;;;;;;;4996597;28;20299;-31
2022/05/18 07:26:10;;;;;;;4.90;2.30;;;;;;;;;;4999872;28;20225;-31
2022/05/18 07:28:40;;;;;;;3.83;2.47;;;;;;;;;;5003746;28;20300;-29
2022/05/18 07:31:08;;;;;;;2.97;2.22;;;;;;;;;;5000542;28;20211;-30
2022/05/18 07:33:36;;;;;;;4.32;2.70;;;;;;;;;;4992227;28;20207;-30
2022/05/18 07:36:05;;;;;;;4.63;2.80;;;;;;;;;;5006116;28;20296;-31
2022/05/18 07:38:33;;;;;;;3.10;2.60;;;;;;;;;;5013150;28;20210;-32
2022/05/18 07:41:00;;;;;;;3.53;2.65;;;;;;;;;;5006208;28;20201;-31
2022/05/18 07:43:27;;;;;;;3.10;2.25;;;;;;;;;;4993955;28;20210;-30
2022/05/18 07:45:57;;;;;;;3.80;2.60;;;;;;;;;;5005253;28;20222;-34
2022/05/18 07:48:25;;;;;;;3.95;2.60;;;;;;;;;;4998151;28;20281;-30
2022/05/18 07:50:53;;;;;;;2.47;2.28;;;;;;;;;;5006767;28;20209;-28
2022/05/18 07:53:20;;;;;;;5.85;2.78;;;;;;;;;;5002677;28;20206;-34
2022/05/18 07:55:48;;;;;;;2.38;2.17;;;;;;;;;;5006974;28;20237;-30
2022/05/18 07:58:17;;;;;;;2.75;2.45;;;;;;;;;;5006699;28;20202;-29
2022/05/18 08:00:44;;;;;;;4.63;2.28;;;;;;;;;;4995318;28;20201;-27
2022/05/18 08:03:12;;;;;;;4.63;2.45;;;;;;;;;;4997233;28;20214;-28
2022/05/18 08:05:40;;;;;;;5.82;2.50;;;;;;;;;;5011204;28;20233;-28
2022/05/18 08:08:09;;;;;;;3.72;2.17;;;;;;;;;;5012867;28;20206;-28
2022/05/18 08:16:15;;;;;;;3.17;2.30;;;;;;;;;;4988536;28;20277;-30
2022/05/18 08:18:44;;;;;;;2.55;2.13;;;;;;;;;;5003091;28;20209;-28
2022/05/18 08:21:11;;;;;;;2.25;1.98;;;;;;;;;;5006627;28;20209;-28
2022/05/18 08:23:38;;;;;;;3.33;2.30;;;;;;;;;;5011806;28;20210;-25
2022/05/18 08:26:06;;;;;;;4.28;2.40;;;;;;;;;;5005821;28;20244;-31
2022/05/18 08:28:34;;;;;;;3.38;2.22;;;;;;;;;;5012003;28;20214;-30
2022/05/18 08:31:01;;;;;;;4.25;2.20;;;;;;;;;;5000185;28;20202;-28
2022/05/18 08:33:31;;;;;;;5.82;1.85;;;;;;;;;;4996484;28;20260;-29
2022/05/18 08:36:00;;;;;;;2.63;2.08;;;;;;;;;;5000457;28;20280;-28
2022/05/18 08:38:27;;;;;;;2.90;1.75;;;;;;;;;;5008061;28;20209;-30
2022/05/18 08:40:57;;;;;;;3.05;2.13;;;;;;;;;;5012524;28;20214;-29
2022/05/18 08:43:26;;;;;;;5.75;2.22;;;;;;;;;;4999402;28;20239;-26
2022/05/18 08:46:01;;;;;;;5.25;3.35;;;;;;;;;;5007998;28;20234;-27
2022/05/18 08:48:36;;;;;;;23.85;12.77;;;;;;;;;;5002919;28;20205;-28
2022/05/18 08:51:14;;;;;;;6.85;3.80;;;;;;;;;;5012584;28;20198;-28
2022/05/18 08:53:45;;;;;;;1.90;1.80;;;;;;;;;;4999825;28;20209;-28
2022/05/18 08:56:14;;;;;;;14.27;11.07;;;;;;;;;;5002336;28;20237;-29
2022/05/18 08:58:43;;;;;;;3.00;2.15;;;;;;;;;;5001349;28;20260;-30
2022/05/18 09:01:15;;;;;;;2.28;2.03;;;;;;;;;;4998498;28;20207;-28
2022/05/18 09:03:44;;;;;;;7.95;3.78;;;;;;;;;;5001619;28;20292;-25
2022/05/18 09:06:14;;;;;;;4.30;2.55;;;;;;;;;;5003422;28;20217;-30
2022/05/18 09:08:43;;;;;;;3.75;2.10;;;;;;;;;;5012108;28;20204;-30
2022/05/18 09:11:19;;;;;;;3.83;2.20;;;;;;;;;;5004489;28;20207;-29
2022/05/18 09:13:47;;;;;;;1.95;1.85;;;;;;;;;;5003620;28;20232;-29
2022/05/18 09:16:21;;;;;;;2.10;1.90;;;;;;;;;;5005311;28;20281;-30
2022/05/18 09:18:54;;;;;;;3.63;2.08;;;;;;;;;;4998689;28;20205;-30
2022/05/18 09:21:28;;;;;;;4.47;2.10;;;;;;;;;;5000587;28;20191;-29
2022/05/18 09:23:58;;;;;;;9.75;2.20;;;;;;;;;;5007228;28;20202;-29
2022/05/18 09:26:47;;;;;;;2.70;1.85;;;;;;;;;;5004303;28;20228;-25
2022/05/18 09:31:52;;;;;;;2.78;1.75;;;;;;;;;;5004806;28;20218;-37
2022/05/18 09:34:28;;;;;;;3.83;2.17;;;;;;;;;;4993570;28;20206;-38
2022/05/18 09:37:11;;;;;;;2.83;2.00;;;;;;;;;;5003511;28;20278;-32
2022/05/18 09:39:42;;;;;;;3.67;2.10;;;;;;;;;;5004957;28;20236;-41
2022/05/18 09:42:11;;;;;;;2.33;2.10;;;;;;;;;;4983066;28;20209;-36
2022/05/18 09:44:42;;;;;;;5.57;2.10;;;;;;;;;;4988680;28;20301;-34
2022/05/18 09:47:12;;;;;;;3.35;2.25;;;;;;;;;;4987388;28;20317;-36
2022/05/18 09:49:42;;;;;;;2.42;1.90;;;;;;;;;;4997250;28;20237;-35
2022/05/18 09:52:11;;;;;;;2.42;2.05;;;;;;;;;;4990326;28;20203;-38
2022/05/18 09:54:38;;;;;;;2.08;1.80;;;;;;;;;;5002368;28;20233;-38
2022/05/18 09:57:08;;;;;;;2.35;1.98;;;;;;;;;;4989313;28;20303;-37
2022/05/18 09:59:37;;;;;;;2.22;1.95;;;;;;;;;;4998090;28;20209;-38
2022/05/18 10:07:46;;;;;;;3.72;1.98;;;;;;;;;;4990874;28;20217;-40
2022/05/18 10:10:14;;;;;;;3.47;2.00;;;;;;;;;;4986884;28;20205;-32
2022/05/18 10:12:46;;;;;;;4.95;2.08;;;;;;;;;;4990156;28;20211;-40
2022/05/18 10:15:21;;;;;;;2.03;1.92;;;;;;;;;;4990745;28;20213;-33
2022/05/18 10:17:50;;;;;;;3.13;1.60;;;;;;;;;;4979491;28;20205;-36
2022/05/18 10:20:23;;;;;;;2.47;1.90;;;;;;;;;;4984768;28;20288;-33
2022/05/18 10:22:52;;;;;;;2.00;1.90;;;;;;;;;;4990212;28;20210;-41
2022/05/18 10:25:25;;;;;;;2.22;1.92;;;;;;;;;;4991730;28;20214;-36
2022/05/18 10:27:53;;;;;;;3.55;2.08;;;;;;;;;;4982019;28;20295;-35
2022/05/18 10:30:28;;;;;;;4.00;2.38;;;;;;;;;;4991827;28;20300;-37
2022/05/18 10:35:38;;;;;;;5.88;3.20;;;;;;;;;;4992286;28;20226;-34
2022/05/18 10:38:16;;;;;;;1.85;1.75;;;;;;;;;;4987968;28;20207;-36
2022/05/18 10:40:43;;;;;;;2.22;2.00;;;;;;;;;;4993012;28;20210;-37
2022/05/18 10:43:23;;;;;;;3.08;1.88;;;;;;;;;;4994205;28;20205;-38
2022/05/18 10:45:54;;;;;;;2.50;2.22;;;;;;;;;;4994579;28;20226;-37
2022/05/18 10:48:23;;;;;;;3.88;2.42;;;;;;;;;;4989607;28;20232;-38
2022/05/18 10:51:00;;;;;;;2.55;2.13;;;;;;;;;;4987037;28;20296;-34
2022/05/18 10:53:33;;;;;;;2.25;2.00;;;;;;;;;;4979388;28;20211;-35
2022/05/18 10:56:04;;;;;;;1.70;1.60;;;;;;;;;;4975894;28;20269;-36
2022/05/18 10:58:36;;;;;;;2.22;2.00;;;;;;;;;;4989183;28;20216;-35
2022/05/18 11:01:05;;;;;;;1.80;1.70;;;;;;;;;;4995291;28;20200;-35
2022/05/18 11:03:36;;;;;;;1.95;1.80;;;;;;;;;;4990465;28;20298;-40
2022/05/18 11:06:07;;;;;;;2.97;2.00;;;;;;;;;;4987482;28;20216;-36
2022/05/18 11:08:35;;;;;;;2.25;2.03;;;;;;;;;;4994739;28;20217;-35
2022/05/18 11:11:08;;;;;;;2.72;1.95;;;;;;;;;;4991697;28;20209;-33
2022/05/18 11:13:38;;;;;;;1.80;1.65;;;;;;;;;;4991229;28;20206;-39
2022/05/18 11:16:16;;;;;;;2.90;1.90;;;;;;;;;;4983035;28;20225;-35
2022/05/18 11:18:46;;;;;;;1.77;1.67;;;;;;;;;;4990295;28;20221;-40
2022/05/18 11:21:16;;;;;;;2.25;1.90;;;;;;;;;;4994781;28;20200;-40
2022/05/18 11:23:52;;;;;;;3.50;1.92;;;;;;;;;;4994694;28;20201;-38
2022/05/18 11:26:24;;;;;;;1.83;1.73;;;;;;;;;;4988151;28;20228;-39
2022/05/18 11:28:55;;;;;;;2.38;2.10;;;;;;;;;;4993819;28;20272;-36
2022/05/18 11:31:37;;;;;;;2.38;2.10;;;;;;;;;;4995003;28;20240;-31
2022/05/18 11:34:09;;;;;;;2.92;2.72;;;;;;;;;;4983795;28;20218;-39
2022/05/18 11:36:39;;;;;;;3.03;1.77;;;;;;;;;;4991828;28;20229;-33
2022/05/18 11:39:11;;;;;;;2.05;1.85;;;;;;;;;;4994544;28;20281;-39
2022/05/18 11:41:47;;;;;;;2.42;1.80;;;;;;;;;;4984655;28;20250;-35
2022/05/18 11:44:19;;;;;;;3.40;2.30;;;;;;;;;;4980426;28;20229;-38
2022/05/18 11:47:07;;;;;;;2.80;1.98;;;;;;;;;;4986194;28;20228;-37
2022/05/18 11:49:38;;;;;;;4.63;1.75;;;;;;;;;;4984013;28;20242;-36
2022/05/18 11:52:15;;;;;;;2.72;1.88;;;;;;;;;;4982904;28;20273;-35
2022/05/18 11:54:51;;;;;;;4.72;1.75;;;;;;;;;;4984859;28;20206;-39
2022/05/18 11:57:26;;;;;;;2.42;1.85;;;;;;;;;;4987800;28;20263;-39
2022/05/18 12:00:00;;;;;;;4.95;1.92;;;;;;;;;;4986995;28;20206;-35
2022/05/18 12:02:37;;;;;;;3.13;1.85;;;;;;;;;;4986359;28;20203;-39
2022/05/18 12:05:13;;;;;;;3.67;1.60;;;;;;;;;;4983788;28;20211;-38
2022/05/18 12:07:50;;;;;;;1.52;1.38;;;;;;;;;;4983558;28;20198;-34
2022/05/18 12:10:26;;;;;;;1.88;1.70;;;;;;;;;;4981679;28;20203;-38
2022/05/18 12:12:57;;;;;;;2.22;1.85;;;;;;;;;;4981398;28;20198;-33
2022/05/18 12:15:29;;;;;;;3.67;1.80;;;;;;;;;;4989242;28;20226;-42
2022/05/18 12:17:58;;;;;;;2.70;1.63;;;;;;;;;;4983798;28;20280;-35
2022/05/18 12:20:28;;;;;;;1.85;1.58;;;;;;;;;;4990054;28;20265;-36
2022/05/18 12:22:58;;;;;;;1.70;1.60;;;;;;;;;;4986912;28;20270;-35
2022/05/18 12:25:28;;;;;;;2.55;1.88;;;;;;;;;;4984849;28;20234;-32
2022/05/18 12:27:57;;;;;;;3.13;1.90;;;;;;;;;;4979505;28;20262;-34
2022/05/18 12:30:26;;;;;;;3.05;1.70;;;;;;;;;;4986071;28;20206;-33
2022/05/18 12:32:54;;;;;;;1.92;1.55;;;;;;;;;;4988588;28;20210;-36
2022/05/18 12:35:25;;;;;;;1.75;1.48;;;;;;;;;;4988608;28;20266;-39
2022/05/18 12:37:54;;;;;;;6.28;2.42;;;;;;;;;;4986820;28;20504;-38
2022/05/18 12:40:37;;;;;;;1.70;1.58;;;;;;;;;;4983839;28;20221;-34
2022/05/18 12:43:13;;;;;;;1.65;1.58;;;;;;;;;;4985248;28;20214;-36
2022/05/18 12:45:44;;;;;;;2.95;1.65;;;;;;;;;;4987761;28;20241;-33
2022/05/18 12:48:13;;;;;;;1.63;1.48;;;;;;;;;;4985932;28;20211;-42
2022/05/18 12:50:55;;;;;;;4.75;1.80;;;;;;;;;;4984916;28;20493;-36
2022/05/18 12:53:24;;;;;;;2.83;1.88;;;;;;;;;;4985996;28;20195;-38
2022/05/18 12:55:59;;;;;;;2.22;1.75;;;;;;;;;;4978949;28;20236;-37
2022/05/18 12:58:29;;;;;;;2.03;1.38;;;;;;;;;;4986615;28;20229;-34
2022/05/18 13:01:05;;;;;;;2.33;1.67;;;;;;;;;;4983313;28;20205;-40
2022/05/18 13:03:42;;;;;;;2.45;1.42;;;;;;;;;;4981348;28;20234;-40
2022/05/18 13:06:14;;;;;;;2.58;1.80;;;;;;;;;;4984620;28;20244;-36
2022/05/18 13:09:08;;;;;;;1.95;1.77;;;;;;;;;;4983061;28;20203;-40
2022/05/18 13:11:47;;;;;;;1.75;1.48;;;;;;;;;;4983076;28;20215;-32
2022/05/18 13:14:25;;;;;;;3.78;1.85;;;;;;;;;;4977730;28;20210;-39
2022/05/18 13:16:59;;;;;;;2.75;1.50;;;;;;;;;;4978184;28;20247;-35
2022/05/18 13:19:28;;;;;;;2.42;1.77;;;;;;;;;;4985056;28;20291;-39
2022/05/18 13:22:01;;;;;;;1.38;1.27;;;;;;;;;;4980097;28;20239;-34
2022/05/18 13:24:33;;;;;;;1.67;1.58;;;;;;;;;;4978777;28;20211;-39
2022/05/18 13:27:05;;;;;;;3.53;1.58;;;;;;;;;;4981200;28;20237;-41
2022/05/18 13:29:33;;;;;;;1.70;1.60;;;;;;;;;;4983458;28;20198;-35
2022/05/18 13:32:05;;;;;;;3.00;1.60;;;;;;;;;;4984032;28;20212;-40
2022/05/18 13:34:47;;;;;;;2.97;1.50;;;;;;;;;;4987376;28;20284;-35
2022/05/18 13:37:15;;;;;;;2.28;1.88;;;;;;;;;;4982057;28;20238;-38
2022/05/18 13:39:46;;;;;;;1.90;1.77;;;;;;;;;;4985178;28;20215;-38
2022/05/18 13:42:15;;;;;;;2.55;1.98;;;;;;;;;;4984767;28;20210;-37
2022/05/18 13:44:42;;;;;;;2.92;1.55;;;;;;;;;;4993295;28;20214;-33
2022/05/18 13:47:11;;;;;;;2.90;1.88;;;;;;;;;;4978544;28;20238;-40
2022/05/18 13:49:41;;;;;;;2.03;1.92;;;;;;;;;;4982801;28;20456;-40
2022/05/18 13:52:11;;;;;;;2.33;2.13;;;;;;;;;;4991491;28;20234;-33
2022/05/18 13:54:40;;;;;;;4.13;2.15;;;;;;;;;;4992021;28;20226;-31
2022/05/18 13:57:09;;;;;;;2.05;1.63;;;;;;;;;;4979385;28;20226;-39
2022/05/18 13:59:45;;;;;;;3.88;2.15;;;;;;;;;;4991350;28;20252;-37
2022/05/18 14:02:16;;;;;;;1.70;1.60;;;;;;;;;;4983717;28;20218;-39
2022/05/18 14:04:44;;;;;;;1.70;1.60;;;;;;;;;;4973666;28;20273;-36
2022/05/18 14:07:11;;;;;;;3.42;1.75;;;;;;;;;;4985036;28;20226;-33
2022/05/18 14:09:41;;;;;;;2.22;1.80;;;;;;;;;;4971807;28;20253;-36
2022/05/18 14:12:14;;;;;;;2.20;2.00;;;;;;;;;;4977536;28;20217;-39
2022/05/18 14:14:44;;;;;;;2.80;2.00;;;;;;;;;;4989454;28;20211;-36
2022/05/18 14:17:13;;;;;;;2.03;1.83;;;;;;;;;;4987269;28;20569;-36
2022/05/18 14:19:42;;;;;;;2.97;1.88;;;;;;;;;;4977214;28;20326;-35
2022/05/18 14:22:13;;;;;;;2.80;1.88;;;;;;;;;;4984931;28;20237;-39
2022/05/18 14:24:43;;;;;;;2.13;1.80;;;;;;;;;;4992142;28;20203;-33
2022/05/18 14:27:11;;;;;;;2.50;2.00;;;;;;;;;;4990831;28;20274;-35
2022/05/18 14:29:40;;;;;;;3.17;1.80;;;;;;;;;;4983341;28;20222;-39
2022/05/18 14:32:11;;;;;;;2.83;1.88;;;;;;;;;;4983135;28;20202;-40
2022/05/18 14:34:40;;;;;;;3.53;1.70;;;;;;;;;;4980096;28;20223;-39
2022/05/18 14:37:11;;;;;;;2.40;1.80;;;;;;;;;;4986081;28;20322;-36
2022/05/18 14:39:40;;;;;;;2.08;1.70;;;;;;;;;;4975240;28;20223;-42
2022/05/18 14:42:08;;;;;;;2.70;1.95;;;;;;;;;;4974999;28;20207;-38
2022/05/18 14:44:50;;;;;;;2.30;1.60;;;;;;;;;;4987837;28;20215;-35
2022/05/18 14:47:24;;;;;;;1.40;1.33;;;;;;;;;;4986594;28;20278;-38
2022/05/18 14:49:55;;;;;;;2.28;1.88;;;;;;;;;;4991581;28;20221;-37
2022/05/18 14:52:35;;;;;;;2.38;2.15;;;;;;;;;;4990975;28;20266;-35
2022/05/18 14:55:10;;;;;;;3.80;1.70;;;;;;;;;;4991109;28;20293;-36
2022/05/18 14:57:38;;;;;;;1.90;1.80;;;;;;;;;;4983879;28;20233;-33
2022/05/18 15:00:07;;;;;;;2.00;1.63;;;;;;;;;;4978975;28;20285;-33
2022/05/18 15:02:37;;;;;;;2.30;1.48;;;;;;;;;;4977036;28;20210;-37
2022/05/18 15:05:05;;;;;;;1.83;1.73;;;;;;;;;;4976803;28;20294;-38
2022/05/18 15:07:35;;;;;;;1.98;1.65;;;;;;;;;;4982473;28;20237;-34
2022/05/18 15:10:04;;;;;;;4.60;1.40;;;;;;;;;;4971192;28;20218;-41
2022/05/18 15:12:34;;;;;;;2.97;1.70;;;;;;;;;;4973858;28;20216;-36
2022/05/18 15:15:03;;;;;;;1.75;1.48;;;;;;;;;;4986608;28;20203;-36
2022/05/18 15:17:31;;;;;;;1.58;1.48;;;;;;;;;;4983594;28;20331;-34
2022/05/18 15:20:06;;;;;;;2.47;1.50;;;;;;;;;;4979130;28;20207;-40
2022/05/18 15:22:34;;;;;;;1.45;1.27;;;;;;;;;;4993652;28;20216;-39